Time;durP1;ratioP1;P1;durP2;ratioP2;P2;SDS_P1;SDS_P2;PMS_P1;PMS_P2;Temp;Humidity;BMP_temperature;BMP_pressure;BME280_temperature;BME280_humidity;BME280_pressure;Samples;Min_cycle;Max_cycle;Signal;HPM_P1;HPM_P2
2024/04/10 00:02:16;;;;;;;10.45;2.50;;;6.60;99.90;;;;;;5545262;25;19997;-44
2024/04/10 00:04:42;;;;;;;10.45;2.55;;;6.50;99.90;;;;;;5545280;26;19990;-43
2024/04/10 00:07:08;;;;;;;10.38;2.42;;;6.60;99.90;;;;;;5544120;26;20087;-43
2024/04/10 00:09:33;;;;;;;10.75;2.33;;;6.70;99.90;;;;;;5544914;25;19985;-44
2024/04/10 00:11:59;;;;;;;12.68;3.05;;;6.70;99.90;;;;;;5544805;25;20063;-43
2024/04/10 00:14:24;;;;;;;7.43;2.33;;;6.70;99.90;;;;;;5545155;26;19989;-45
2024/04/10 00:16:50;;;;;;;9.77;2.13;;;6.70;99.90;;;;;;5545050;26;19990;-47
2024/04/10 00:19:16;;;;;;;8.63;2.20;;;6.70;99.90;;;;;;5544275;26;20018;-44
2024/04/10 00:21:43;;;;;;;12.80;2.38;;;6.60;99.90;;;;;;5544604;26;19997;-47
2024/04/10 00:24:09;;;;;;;9.73;2.45;;;6.60;99.90;;;;;;5544896;25;20001;-47
2024/04/10 00:26:34;;;;;;;10.27;2.20;;;6.60;99.90;;;;;;5544684;25;19993;-46
2024/04/10 00:29:02;;;;;;;7.72;2.83;;;6.80;99.90;;;;;;5543890;26;20035;-47
2024/04/10 00:31:28;;;;;;;8.90;2.40;;;6.90;99.90;;;;;;5544607;25;19986;-47
2024/04/10 00:33:53;;;;;;;9.50;2.17;;;6.90;99.90;;;;;;5544357;26;20034;-44
2024/04/10 00:36:19;;;;;;;11.10;2.50;;;6.90;99.90;;;;;;5544370;25;20049;-45
2024/04/10 00:38:45;;;;;;;7.47;2.00;;;6.90;99.90;;;;;;5544753;25;20017;-44
2024/04/10 00:41:11;;;;;;;9.38;2.25;;;7.00;99.90;;;;;;5543688;26;19989;-47
2024/04/10 00:43:36;;;;;;;9.10;2.17;;;7.20;99.90;;;;;;5544414;26;19990;-44
2024/04/10 00:46:17;;;;;;;10.57;2.10;;;7.40;99.90;;;;;;5512550;26;19993;-47
2024/04/10 00:48:43;;;;;;;12.20;2.08;;;7.50;99.90;;;;;;5543772;26;20001;-46
2024/04/10 00:51:12;;;;;;;8.27;2.38;;;7.70;99.90;;;;;;5544621;25;19992;-47
2024/04/10 00:53:39;;;;;;;11.43;2.15;;;7.80;99.90;;;;;;5544498;25;19996;-45
2024/04/10 00:56:05;;;;;;;9.77;1.95;;;7.70;99.90;;;;;;5544337;25;19990;-47
2024/04/10 00:58:32;;;;;;;8.30;2.15;;;7.70;99.90;;;;;;5544030;26;20175;-45
2024/04/10 01:00:58;;;;;;;8.25;1.95;;;7.80;99.90;;;;;;5543414;26;19996;-47
2024/04/10 01:03:24;;;;;;;8.85;1.85;;;7.80;99.90;;;;;;5544309;25;19986;-45
2024/04/10 01:06:00;;;;;;;4.97;1.60;;;7.90;99.90;;;;;;5542789;26;19997;-44
2024/04/10 01:08:29;;;;;;;5.70;1.67;;;7.90;99.90;;;;;;5542794;25;20180;-44
2024/04/10 01:10:55;;;;;;;6.22;1.60;;;8.00;99.90;;;;;;5544078;25;19992;-45
2024/04/10 01:13:21;;;;;;;6.85;1.60;;;7.90;99.90;;;;;;5544048;25;20056;-44
2024/04/10 01:15:46;;;;;;;8.80;1.65;;;7.90;99.90;;;;;;5542694;26;19986;-45
2024/04/10 01:18:12;;;;;;;9.55;1.75;;;8.00;99.90;;;;;;5544119;25;20001;-45
2024/04/10 01:20:38;;;;;;;8.50;1.60;;;7.90;99.90;;;;;;5544145;25;19996;-45
2024/04/10 01:23:04;;;;;;;6.03;1.58;;;7.90;99.90;;;;;;5544001;25;19995;-44
2024/04/10 01:25:30;;;;;;;6.63;1.60;;;7.90;99.90;;;;;;5542823;26;19995;-44
2024/04/10 01:27:55;;;;;;;9.73;2.70;;;7.90;99.90;;;;;;5543535;26;19985;-43
2024/04/10 01:30:21;;;;;;;7.70;1.67;;;7.90;99.90;;;;;;5543905;26;20005;-44
2024/04/10 01:32:47;;;;;;;6.25;1.77;;;7.90;99.90;;;;;;5543758;26;19989;-43
2024/04/10 01:35:12;;;;;;;10.55;1.90;;;7.90;99.90;;;;;;5543771;26;20212;-45
2024/04/10 01:37:38;;;;;;;9.18;1.73;;;7.90;99.90;;;;;;5543648;26;20160;-44
2024/04/10 01:40:04;;;;;;;8.13;1.83;;;8.00;99.90;;;;;;5543721;26;19996;-44
2024/04/10 01:42:30;;;;;;;4.93;1.70;;;8.00;99.90;;;;;;5543016;26;20001;-43
2024/04/10 01:44:56;;;;;;;7.72;1.70;;;8.00;99.90;;;;;;5543708;26;20010;-47
2024/04/10 01:47:21;;;;;;;6.78;1.55;;;8.00;99.90;;;;;;5543473;26;19985;-44
2024/04/10 01:49:47;;;;;;;5.57;1.38;;;7.90;99.90;;;;;;5543182;26;19997;-47
2024/04/10 01:52:13;;;;;;;7.43;2.22;;;7.90;99.90;;;;;;5543740;26;20052;-45
2024/04/10 01:54:38;;;;;;;5.00;1.38;;;7.90;99.90;;;;;;5543871;25;19986;-47
2024/04/10 01:57:04;;;;;;;8.77;1.98;;;7.90;99.90;;;;;;5543561;26;19997;-47
2024/04/10 01:59:30;;;;;;;4.18;1.58;;;7.90;99.90;;;;;;5543511;26;19985;-45
2024/04/10 02:01:55;;;;;;;6.97;2.08;;;7.80;99.90;;;;;;5543201;25;20001;-44
2024/04/10 02:04:21;;;;;;;7.22;1.60;;;7.80;99.90;;;;;;5543128;26;19997;-47
2024/04/10 02:06:46;;;;;;;10.05;2.05;;;7.70;99.90;;;;;;5542188;26;19998;-45
2024/04/10 02:09:12;;;;;;;5.13;1.70;;;7.70;99.90;;;;;;5543304;26;19996;-45
2024/04/10 02:11:38;;;;;;;10.95;2.10;;;7.80;99.90;;;;;;5543044;26;19989;-48
2024/04/10 02:14:04;;;;;;;5.22;1.15;;;7.80;99.90;;;;;;5543350;25;20029;-51
2024/04/10 02:16:31;;;;;;;7.45;2.25;;;7.80;99.90;;;;;;5543277;26;19989;-45
2024/04/10 02:18:56;;;;;;;5.82;1.83;;;7.80;99.90;;;;;;5542788;25;20148;-43
2024/04/10 02:21:22;;;;;;;7.15;1.58;;;7.90;99.90;;;;;;5543323;25;19992;-44
2024/04/10 02:23:48;;;;;;;9.85;1.40;;;8.00;99.90;;;;;;5542019;26;19986;-44
2024/04/10 02:26:14;;;;;;;5.45;1.75;;;8.00;99.90;;;;;;5542879;25;19993;-44
2024/04/10 02:28:40;;;;;;;5.88;1.35;;;8.00;99.90;;;;;;5542219;26;20079;-44
2024/04/10 02:31:08;;;;;;;5.28;1.77;;;8.00;99.90;;;;;;5543085;26;20055;-43
2024/04/10 02:33:37;;;;;;;6.13;1.75;;;8.00;99.90;;;;;;5542927;25;19989;-46
2024/04/10 02:36:06;;;;;;;9.52;1.83;;;8.00;99.90;;;;;;5542634;25;19994;-45
2024/04/10 02:38:33;;;;;;;5.88;1.50;;;8.00;99.90;;;;;;5542100;26;19997;-44
2024/04/10 02:40:58;;;;;;;4.55;2.03;;;8.00;99.90;;;;;;5543087;25;19989;-44
2024/04/10 02:43:24;;;;;;;7.63;2.08;;;8.00;99.90;;;;;;5542915;25;19997;-43
2024/04/10 02:45:57;;;;;;;11.07;1.80;;;7.90;99.90;;;;;;5541501;26;19985;-44
2024/04/10 02:48:23;;;;;;;6.93;1.60;;;7.90;99.90;;;;;;5511047;26;20172;-44
2024/04/10 02:50:49;;;;;;;5.90;1.50;;;7.90;99.90;;;;;;5541968;26;19993;-44
2024/04/10 02:53:14;;;;;;;9.32;1.98;;;7.80;99.90;;;;;;5542694;25;19992;-45
2024/04/10 02:55:47;;;;;;;7.80;1.77;;;7.70;99.90;;;;;;5542520;26;19985;-44
2024/04/10 02:58:12;;;;;;;9.77;1.80;;;7.70;99.90;;;;;;5542491;25;20059;-45
2024/04/10 03:00:44;;;;;;;8.73;1.42;;;7.70;99.90;;;;;;5541393;26;20064;-47
2024/04/10 03:03:10;;;;;;;6.10;1.95;;;7.70;99.90;;;;;;5542601;26;19990;-44
2024/04/10 03:05:36;;;;;;;8.80;1.70;;;7.60;99.90;;;;;;5542652;26;20166;-43
2024/04/10 03:08:02;;;;;;;6.10;1.40;;;7.60;99.90;;;;;;5542292;25;20029;-44
2024/04/10 03:10:28;;;;;;;7.22;1.70;;;7.60;99.90;;;;;;5542615;26;20044;-44
2024/04/10 03:12:54;;;;;;;6.22;1.60;;;7.60;99.90;;;;;;5542478;26;19989;-46
2024/04/10 03:15:19;;;;;;;8.05;1.58;;;7.70;99.90;;;;;;5542623;25;19986;-43
2024/04/10 03:17:46;;;;;;;7.75;1.75;;;7.70;99.90;;;;;;5510523;26;19985;-44
2024/04/10 03:20:15;;;;;;;5.90;1.80;;;7.80;99.90;;;;;;5542426;25;19985;-44
2024/04/10 03:22:41;;;;;;;4.78;1.80;;;7.70;99.90;;;;;;5542403;25;20085;-49
2024/04/10 03:25:07;;;;;;;9.68;1.92;;;7.70;99.90;;;;;;5541976;26;20005;-46
2024/04/10 03:27:33;;;;;;;8.63;1.73;;;7.60;99.90;;;;;;5541741;25;20027;-43
2024/04/10 03:29:58;;;;;;;8.20;1.75;;;7.60;99.90;;;;;;5539419;26;19990;-45
2024/04/10 03:32:27;;;;;;;9.45;1.98;;;7.70;99.90;;;;;;5542317;25;20151;-45
2024/04/10 03:34:53;;;;;;;7.32;1.80;;;7.80;99.90;;;;;;5541343;26;19993;-45
2024/04/10 03:37:19;;;;;;;6.43;1.67;;;7.90;99.90;;;;;;5541950;26;19998;-46
2024/04/10 03:39:44;;;;;;;6.30;1.67;;;7.80;99.90;;;;;;5541644;25;19989;-44
2024/04/10 03:42:10;;;;;;;5.03;1.40;;;7.80;99.90;;;;;;5542109;25;20038;-44
2024/04/10 03:44:36;;;;;;;3.95;1.40;;;7.80;99.90;;;;;;5542034;26;19989;-45
2024/04/10 03:47:02;;;;;;;3.85;1.52;;;7.90;99.90;;;;;;5541840;26;19997;-43
2024/04/10 03:49:28;;;;;;;8.13;1.85;;;7.90;99.90;;;;;;5540748;26;20000;-44
2024/04/10 03:51:54;;;;;;;5.93;1.50;;;7.90;99.90;;;;;;5541378;25;19993;-46
2024/04/10 03:54:20;;;;;;;6.53;1.58;;;7.90;99.90;;;;;;5541929;26;20065;-47
2024/04/10 03:56:45;;;;;;;9.82;1.65;;;7.90;99.90;;;;;;5540917;26;20155;-44
2024/04/10 03:59:11;;;;;;;7.25;1.80;;;7.90;99.90;;;;;;5541880;26;19985;-45
2024/04/10 04:01:37;;;;;;;7.07;1.75;;;7.80;99.90;;;;;;5541720;25;20038;-47
2024/04/10 04:04:05;;;;;;;5.72;1.42;;;7.80;99.90;;;;;;5541197;25;20002;-47
2024/04/10 04:06:31;;;;;;;6.03;1.35;;;7.80;99.90;;;;;;5541276;25;20005;-45
2024/04/10 04:08:56;;;;;;;3.80;1.40;;;7.80;99.90;;;;;;5541593;26;20026;-45
2024/04/10 04:11:22;;;;;;;5.65;1.50;;;7.90;99.90;;;;;;5541494;26;20021;-45
2024/04/10 04:13:48;;;;;;;3.22;1.23;;;7.90;99.90;;;;;;5540852;26;19993;-47
2024/04/10 04:16:14;;;;;;;2.50;1.13;;;8.00;99.90;;;;;;5541351;26;20163;-47
2024/04/10 04:18:40;;;;;;;7.43;1.48;;;8.00;99.90;;;;;;5541571;25;20159;-47
2024/04/10 04:21:06;;;;;;;4.80;1.40;;;8.00;99.90;;;;;;5541440;25;20040;-45
2024/04/10 04:23:31;;;;;;;4.22;1.50;;;8.10;99.90;;;;;;5541065;26;19997;-47
2024/04/10 04:25:57;;;;;;;6.07;1.48;;;8.10;99.90;;;;;;5540594;26;19989;-47
2024/04/10 04:28:23;;;;;;;4.03;1.48;;;8.20;99.90;;;;;;5540909;26;19992;-46
2024/04/10 04:30:48;;;;;;;4.80;1.73;;;8.20;99.90;;;;;;5541158;26;20051;-44
2024/04/10 04:33:15;;;;;;;7.15;1.83;;;8.30;99.90;;;;;;5540365;26;19992;-47
2024/04/10 04:35:41;;;;;;;6.60;1.70;;;8.40;99.90;;;;;;5540518;25;20059;-46
2024/04/10 04:38:07;;;;;;;9.25;1.60;;;8.40;99.90;;;;;;5540731;26;20000;-47
2024/04/10 04:40:32;;;;;;;8.23;1.60;;;8.40;99.90;;;;;;5539921;26;19989;-43
2024/04/10 04:43:08;;;;;;;7.18;1.65;;;8.50;99.90;;;;;;5543282;26;20009;-43
2024/04/10 04:45:34;;;;;;;5.20;1.50;;;8.50;99.90;;;;;;5514723;26;20059;-47
2024/04/10 04:47:59;;;;;;;7.80;2.22;;;8.60;99.90;;;;;;5543314;26;20156;-46
2024/04/10 04:50:25;;;;;;;6.88;1.58;;;8.70;99.90;;;;;;5544234;26;19986;-47
2024/04/10 04:52:51;;;;;;;8.52;1.63;;;8.70;99.90;;;;;;5543430;26;19993;-44
2024/04/10 04:55:17;;;;;;;12.23;2.22;;;8.80;99.90;;;;;;5544574;25;20048;-46
2024/04/10 04:57:42;;;;;;;8.45;2.20;;;8.90;99.90;;;;;;5543966;26;19981;-44
2024/04/10 05:00:11;;;;;;;6.22;2.05;;;9.00;99.90;;;;;;5544502;26;19989;-43
2024/04/10 05:02:43;;;;;;;11.63;2.40;;;9.00;99.90;;;;;;5544210;25;19993;-44
2024/04/10 05:05:14;;;;;;;7.70;2.45;;;9.10;99.90;;;;;;5544305;25;19989;-44
2024/04/10 05:07:40;;;;;;;11.65;2.55;;;9.10;99.90;;;;;;5544034;25;20055;-44
2024/04/10 05:10:06;;;;;;;8.30;2.85;;;9.20;99.90;;;;;;5544189;25;20038;-43
2024/04/10 05:12:32;;;;;;;10.27;2.08;;;9.20;99.90;;;;;;5543667;26;20089;-45
2024/04/10 05:14:58;;;;;;;8.32;2.05;;;9.20;99.90;;;;;;5544019;25;19992;-44
2024/04/10 05:17:23;;;;;;;7.93;2.20;;;9.30;99.90;;;;;;5512374;26;19985;-45
2024/04/10 05:19:49;;;;;;;12.82;2.35;;;9.30;99.90;;;;;;5543053;26;19986;-44
2024/04/10 05:22:14;;;;;;;15.23;2.45;;;9.40;99.90;;;;;;5543599;25;19989;-44
2024/04/10 05:24:41;;;;;;;12.73;2.38;;;9.40;99.90;;;;;;5543916;26;19996;-47
2024/04/10 05:27:08;;;;;;;13.98;2.40;;;9.40;99.90;;;;;;5543620;25;19986;-43
2024/04/10 05:29:34;;;;;;;11.35;2.75;;;9.50;99.90;;;;;;5543726;25;19986;-44
2024/04/10 05:31:59;;;;;;;15.23;3.03;;;9.60;99.90;;;;;;5543454;26;19997;-44
2024/04/10 05:34:25;;;;;;;14.80;3.03;;;9.60;99.90;;;;;;5543503;26;19990;-44
2024/04/10 05:36:51;;;;;;;10.73;2.78;;;9.60;99.90;;;;;;5543484;26;19997;-45
2024/04/10 05:39:34;;;;;;;13.48;3.25;;;9.70;99.90;;;;;;5543599;26;20043;-44
2024/04/10 05:42:06;;;;;;;19.73;2.72;;;9.70;99.90;;;;;;5543105;26;19993;-44
2024/04/10 05:44:32;;;;;;;11.40;2.30;;;9.80;99.90;;;;;;5543356;26;19989;-45
2024/04/10 05:47:00;;;;;;;12.73;2.90;;;9.80;99.90;;;;;;5543037;25;19989;-44
2024/04/10 05:49:25;;;;;;;9.70;1.95;;;9.90;99.90;;;;;;5542578;26;20001;-45
2024/04/10 05:51:51;;;;;;;11.60;2.17;;;10.00;99.90;;;;;;5542948;25;19995;-44
2024/04/10 05:54:17;;;;;;;14.07;2.10;;;10.00;99.90;;;;;;5541798;26;20105;-46
2024/04/10 05:56:42;;;;;;;21.70;3.25;;;10.10;99.90;;;;;;5542587;26;19989;-44
2024/04/10 05:59:08;;;;;;;10.63;2.05;;;10.20;99.90;;;;;;5543025;26;19989;-44
2024/04/10 06:01:34;;;;;;;14.35;2.25;;;10.20;99.90;;;;;;5542616;25;20166;-44
2024/04/10 06:04:00;;;;;;;10.95;1.98;;;10.20;99.90;;;;;;5542198;25;19996;-47
2024/04/10 06:06:26;;;;;;;9.02;2.00;;;10.20;99.90;;;;;;5542825;25;20005;-45
2024/04/10 06:08:52;;;;;;;13.60;2.20;;;10.20;99.90;;;;;;5542404;26;19992;-45
2024/04/10 06:11:17;;;;;;;11.00;2.40;;;10.30;99.90;;;;;;5542505;25;19990;-44
2024/04/10 06:13:51;;;;;;;12.07;2.22;;;10.30;99.90;;;;;;5542541;26;20014;-45
2024/04/10 06:16:19;;;;;;;11.50;2.20;;;10.30;99.90;;;;;;5542910;25;19997;-45
2024/04/10 06:18:44;;;;;;;11.48;2.00;;;10.30;99.90;;;;;;5543152;25;20181;-45
2024/04/10 06:21:10;;;;;;;14.07;3.20;;;10.30;99.90;;;;;;5542957;26;19986;-44
2024/04/10 06:23:35;;;;;;;13.05;2.42;;;10.30;99.90;;;;;;5542218;26;19996;-44
2024/04/10 06:26:02;;;;;;;12.30;2.78;;;10.30;99.90;;;;;;5542515;26;20060;-47
2024/04/10 06:28:28;;;;;;;16.48;2.35;;;10.30;99.90;;;;;;5542987;25;20212;-44
2024/04/10 06:31:01;;;;;;;17.65;2.85;;;10.30;99.90;;;;;;5542789;26;19989;-45
2024/04/10 06:33:27;;;;;;;14.80;3.25;;;10.30;99.90;;;;;;5542508;25;20164;-47
2024/04/10 06:35:53;;;;;;;9.45;2.28;;;10.30;99.90;;;;;;5541324;25;19985;-46
2024/04/10 06:38:19;;;;;;;14.60;2.40;;;10.30;99.90;;;;;;5541287;26;19990;-44
2024/04/10 06:40:55;;;;;;;10.02;1.80;;;10.30;99.90;;;;;;5542239;26;19989;-47
2024/04/10 06:43:21;;;;;;;12.20;2.28;;;10.30;99.90;;;;;;5542030;25;19989;-46
2024/04/10 06:45:56;;;;;;;11.63;2.13;;;10.40;99.90;;;;;;5541798;25;19996;-47
2024/04/10 06:48:22;;;;;;;7.75;1.80;;;10.30;99.90;;;;;;5541994;26;19989;-47
2024/04/10 06:50:47;;;;;;;9.30;2.65;;;10.30;99.90;;;;;;5541051;25;20164;-45
2024/04/10 06:53:15;;;;;;;13.68;3.15;;;10.30;99.90;;;;;;5540743;26;20001;-44
2024/04/10 06:55:41;;;;;;;10.45;2.53;;;10.30;99.90;;;;;;5541561;25;19985;-46
2024/04/10 06:58:06;;;;;;;9.48;2.30;;;10.30;99.90;;;;;;5541958;25;19996;-47
2024/04/10 07:00:33;;;;;;;8.13;2.13;;;10.30;99.90;;;;;;5542079;26;19990;-45
2024/04/10 07:02:59;;;;;;;7.47;1.80;;;10.30;99.90;;;;;;5542143;26;20035;-46
2024/04/10 07:05:24;;;;;;;7.45;1.75;;;10.30;99.90;;;;;;5542275;26;20010;-45
2024/04/10 07:07:50;;;;;;;15.98;3.95;;;10.30;99.90;;;;;;5541341;26;20159;-46
2024/04/10 07:10:16;;;;;;;8.23;2.25;;;10.30;99.90;;;;;;5542065;25;20010;-45
2024/04/10 07:12:41;;;;;;;15.48;3.70;;;10.30;99.90;;;;;;5542107;26;20005;-45
2024/04/10 07:15:07;;;;;;;10.23;2.22;;;10.40;99.90;;;;;;5541517;26;19985;-47
2024/04/10 07:17:33;;;;;;;11.25;2.60;;;10.40;99.90;;;;;;5541682;25;19985;-47
2024/04/10 07:19:58;;;;;;;11.95;2.40;;;10.40;99.90;;;;;;5541084;26;19997;-46
2024/04/10 07:22:24;;;;;;;7.53;2.10;;;10.40;99.90;;;;;;5541747;26;20060;-50
2024/04/10 07:24:50;;;;;;;9.65;2.33;;;10.40;99.90;;;;;;5541601;26;20080;-44
2024/04/10 07:27:16;;;;;;;8.23;2.10;;;10.40;99.90;;;;;;5541632;25;20047;-47
2024/04/10 07:29:45;;;;;;;10.68;2.10;;;10.40;99.90;;;;;;5539444;26;19996;-47
2024/04/10 07:32:11;;;;;;;8.18;1.70;;;10.40;99.90;;;;;;5540311;26;20065;-46
2024/04/10 07:34:36;;;;;;;10.02;1.95;;;10.40;99.90;;;;;;5541531;25;20164;-47
2024/04/10 07:37:03;;;;;;;11.48;2.30;;;10.40;99.90;;;;;;5540205;26;19986;-45
2024/04/10 07:39:29;;;;;;;12.40;2.50;;;10.40;99.90;;;;;;5541175;25;19986;-45
2024/04/10 07:41:55;;;;;;;8.50;2.05;;;10.40;99.90;;;;;;5541034;25;19996;-45
2024/04/10 07:44:20;;;;;;;13.52;2.33;;;10.40;99.90;;;;;;5540739;26;20038;-44
2024/04/10 07:46:46;;;;;;;9.55;1.90;;;10.50;99.90;;;;;;5540854;25;19997;-47
2024/04/10 07:49:13;;;;;;;11.48;2.60;;;10.40;99.90;;;;;;5541499;26;20010;-44
2024/04/10 07:51:39;;;;;;;9.50;2.13;;;10.40;99.90;;;;;;5541567;25;19986;-47
2024/04/10 07:54:05;;;;;;;6.57;1.65;;;10.40;99.90;;;;;;5541152;25;19993;-47
2024/04/10 07:56:31;;;;;;;7.88;2.55;;;10.40;99.90;;;;;;5540360;26;19986;-45
2024/04/10 07:58:58;;;;;;;11.73;2.25;;;10.40;99.90;;;;;;5540966;25;19997;-47
2024/04/10 08:01:24;;;;;;;7.70;1.23;;;10.40;99.90;;;;;;5541242;25;19992;-47
2024/04/10 08:03:50;;;;;;;10.57;2.25;;;10.40;99.90;;;;;;5540010;26;20001;-44
2024/04/10 08:06:16;;;;;;;12.15;2.63;;;10.40;99.90;;;;;;5540723;25;19985;-44
2024/04/10 08:08:45;;;;;;;7.55;1.42;;;10.40;99.90;;;;;;5540305;25;19996;-45
2024/04/10 08:11:17;;;;;;;6.88;1.77;;;10.40;99.90;;;;;;5540627;25;19986;-44
2024/04/10 08:13:42;;;;;;;9.18;2.28;;;10.40;99.90;;;;;;5540430;25;20050;-44
2024/04/10 08:16:11;;;;;;;8.88;1.80;;;10.50;99.90;;;;;;5541277;26;20042;-43
2024/04/10 08:18:38;;;;;;;6.15;1.80;;;10.50;99.90;;;;;;5544366;25;20000;-43
2024/04/10 08:21:08;;;;;;;8.73;1.60;;;10.50;99.90;;;;;;5544218;25;20128;-47
2024/04/10 08:23:34;;;;;;;7.82;1.50;;;10.50;99.90;;;;;;5543700;25;19986;-46
2024/04/10 08:26:00;;;;;;;5.88;1.40;;;10.50;99.90;;;;;;5543733;25;19989;-47
2024/04/10 08:28:26;;;;;;;10.27;1.83;;;10.50;99.90;;;;;;5544007;26;20171;-44
2024/04/10 08:30:55;;;;;;;9.93;1.92;;;10.60;99.90;;;;;;5543387;26;20092;-48
2024/04/10 08:33:22;;;;;;;12.38;1.88;;;10.60;99.90;;;;;;5544231;25;19997;-47
2024/04/10 08:35:59;;;;;;;7.35;1.65;;;10.70;99.90;;;;;;5543759;25;20041;-44
2024/04/10 08:38:25;;;;;;;3.65;1.23;;;10.70;99.90;;;;;;5544333;25;19989;-47
2024/04/10 08:40:52;;;;;;;11.80;2.17;;;10.70;99.90;;;;;;5544377;25;19986;-45
2024/04/10 08:43:19;;;;;;;11.23;1.63;;;10.80;99.90;;;;;;5543202;26;19992;-44
2024/04/10 08:45:45;;;;;;;7.72;1.60;;;10.80;99.90;;;;;;5543728;25;19990;-48
2024/04/10 08:48:10;;;;;;;8.43;2.22;;;10.90;99.90;;;;;;5543306;26;19997;-44
2024/04/10 08:50:36;;;;;;;5.43;1.20;;;10.80;99.90;;;;;;5542896;26;19990;-48
2024/04/10 08:53:02;;;;;;;2.22;1.00;;;10.90;99.90;;;;;;5512562;26;19996;-44
2024/04/10 08:55:28;;;;;;;5.28;1.58;;;10.90;99.90;;;;;;5543051;26;20010;-44
2024/04/10 08:57:54;;;;;;;5.60;1.17;;;10.90;99.90;;;;;;5542118;26;19989;-44
2024/04/10 09:00:20;;;;;;;6.05;1.40;;;10.90;99.90;;;;;;5542737;26;20000;-45
2024/04/10 09:02:45;;;;;;;6.85;1.52;;;10.90;99.90;;;;;;5543488;26;20147;-45
2024/04/10 09:05:11;;;;;;;2.97;1.08;;;10.90;99.90;;;;;;5542715;26;20175;-48
2024/04/10 09:07:37;;;;;;;4.63;1.00;;;11.00;99.90;;;;;;5543513;26;20055;-47
2024/04/10 09:10:09;;;;;;;4.50;1.10;;;11.00;99.90;;;;;;5542397;26;20066;-47
2024/04/10 09:12:35;;;;;;;4.80;1.13;;;11.00;99.90;;;;;;5543129;25;20077;-48
2024/04/10 09:15:11;;;;;;;4.80;1.00;;;11.00;99.90;;;;;;5543693;25;19997;-48
2024/04/10 09:17:37;;;;;;;3.65;1.20;;;11.00;99.90;;;;;;5543288;25;19997;-44
2024/04/10 09:20:16;;;;;;;5.63;1.27;;;11.00;99.90;;;;;;5542730;26;20021;-45
2024/04/10 09:22:43;;;;;;;3.35;1.30;;;11.00;99.90;;;;;;5542695;26;20156;-44
2024/04/10 09:25:12;;;;;;;7.75;1.65;;;11.00;99.90;;;;;;5542650;25;20014;-48
2024/04/10 09:27:38;;;;;;;1.98;1.05;;;11.00;99.90;;;;;;5510568;26;19997;-47
2024/04/10 09:30:07;;;;;;;5.55;1.58;;;10.90;99.90;;;;;;5543427;25;20059;-45
2024/04/10 09:32:33;;;;;;;4.70;1.08;;;10.90;99.90;;;;;;5542877;26;19993;-47
2024/04/10 09:35:00;;;;;;;9.25;1.35;;;11.00;99.90;;;;;;5511678;26;19990;-46
2024/04/10 09:37:26;;;;;;;1.58;0.90;;;11.00;99.90;;;;;;5512110;26;19993;-48
2024/04/10 09:39:52;;;;;;;4.13;0.98;;;11.00;99.90;;;;;;5541786;26;20212;-47
2024/04/10 09:42:26;;;;;;;6.15;1.42;;;11.00;99.90;;;;;;5542604;25;19996;-45
2024/04/10 09:44:59;;;;;;;2.72;0.90;;;11.00;99.90;;;;;;5541877;26;20001;-47
2024/04/10 09:47:25;;;;;;;3.58;0.95;;;11.00;99.90;;;;;;5512746;26;19986;-44
2024/04/10 09:49:50;;;;;;;2.70;0.95;;;11.00;99.90;;;;;;5541668;26;20056;-44
2024/04/10 09:52:18;;;;;;;2.53;1.35;;;11.00;99.90;;;;;;5542370;26;20148;-44
2024/04/10 09:54:44;;;;;;;3.42;0.98;;;11.00;99.90;;;;;;5542016;26;19997;-44
2024/04/10 09:57:10;;;;;;;4.85;1.15;;;11.10;99.90;;;;;;5541652;26;20164;-44
2024/04/10 09:59:36;;;;;;;5.53;1.33;;;11.10;99.90;;;;;;5542057;26;20088;-44
2024/04/10 10:02:15;;;;;;;3.53;0.95;;;11.20;99.90;;;;;;5542551;26;20005;-44
2024/04/10 10:04:40;;;;;;;3.22;1.10;;;11.20;99.90;;;;;;5541984;26;19989;-44
2024/04/10 10:07:06;;;;;;;2.08;0.85;;;11.20;99.90;;;;;;5541289;26;19994;-44
2024/04/10 10:09:32;;;;;;;4.20;1.25;;;11.20;99.90;;;;;;5541331;26;20084;-43
2024/04/10 10:11:58;;;;;;;2.45;0.90;;;11.30;99.90;;;;;;5542276;26;19992;-44
2024/04/10 10:14:27;;;;;;;1.48;0.80;;;11.30;99.90;;;;;;5542710;25;19997;-44
2024/04/10 10:17:07;;;;;;;2.67;0.95;;;11.30;99.90;;;;;;5542724;26;19989;-47
2024/04/10 10:19:39;;;;;;;0.85;0.65;;;11.40;99.90;;;;;;5542542;25;19992;-46
2024/04/10 10:22:05;;;;;;;4.32;1.35;;;11.40;99.90;;;;;;5542365;26;19985;-48
2024/04/10 10:24:31;;;;;;;2.60;1.23;;;11.60;99.90;;;;;;5542603;25;19996;-45
2024/04/10 10:27:01;;;;;;;6.07;2.92;;;11.70;99.90;;;;;;5541322;26;19986;-47
2024/04/10 10:29:27;;;;;;;1.90;0.93;;;11.70;99.90;;;;;;5542749;25;19993;-48
2024/04/10 10:32:03;;;;;;;2.75;2.03;;;11.70;99.90;;;;;;5542329;25;19990;-45
2024/04/10 10:34:29;;;;;;;4.03;1.02;;;11.70;99.90;;;;;;5542365;25;19995;-45
2024/04/10 10:36:54;;;;;;;1.90;1.23;;;11.70;99.90;;;;;;5542770;25;19985;-44
2024/04/10 10:39:20;;;;;;;2.78;0.90;;;11.80;99.90;;;;;;5542180;26;20035;-46
2024/04/10 10:41:46;;;;;;;3.03;1.40;;;11.80;99.90;;;;;;5541952;25;19989;-43
2024/04/10 10:44:20;;;;;;;2.33;1.10;;;11.80;99.90;;;;;;5541959;26;20074;-44
2024/04/10 10:46:46;;;;;;;7.00;3.33;;;11.90;99.90;;;;;;5541905;25;20223;-48
2024/04/10 10:49:12;;;;;;;2.30;1.10;;;11.90;99.90;;;;;;5542114;26;19989;-45
2024/04/10 10:51:37;;;;;;;4.13;1.80;;;11.90;99.90;;;;;;5542167;26;19990;-44
2024/04/10 10:54:03;;;;;;;6.60;2.65;;;11.90;99.90;;;;;;5541184;26;19990;-44
2024/04/10 10:56:30;;;;;;;19.55;8.90;;;11.90;99.90;;;;;;5541011;26;20034;-44
2024/04/10 10:59:09;;;;;;;4.22;1.20;;;11.90;99.90;;;;;;5541075;26;19986;-47
2024/04/10 11:01:34;;;;;;;18.00;11.35;;;12.00;99.90;;;;;;5540574;26;19985;-47
2024/04/10 11:04:10;;;;;;;6.72;2.75;;;11.90;99.90;;;;;;5541359;26;20009;-44
2024/04/10 11:06:37;;;;;;;3.55;1.30;;;11.90;99.90;;;;;;5541559;25;20065;-47
2024/04/10 11:09:18;;;;;;;5.43;1.33;;;11.90;99.90;;;;;;5541077;25;20043;-47
2024/04/10 11:11:44;;;;;;;3.70;2.10;;;11.90;99.90;;;;;;5541050;25;19986;-47
2024/04/10 11:14:16;;;;;;;2.60;1.30;;;11.90;99.90;;;;;;5539926;26;20010;-45
2024/04/10 11:16:41;;;;;;;2.83;1.10;;;11.90;99.90;;;;;;5541213;25;20040;-47
2024/04/10 11:19:07;;;;;;;2.63;1.05;;;11.90;99.90;;;;;;5541083;26;19990;-47
2024/04/10 11:21:33;;;;;;;3.05;1.20;;;11.90;99.90;;;;;;5540220;26;20156;-47
2024/04/10 11:23:59;;;;;;;1.95;0.70;;;11.90;99.90;;;;;;5541170;25;20206;-45
2024/04/10 11:26:26;;;;;;;1.20;0.77;;;12.00;99.90;;;;;;5539922;26;20001;-45
2024/04/10 11:28:55;;;;;;;3.28;0.80;;;12.00;99.90;;;;;;5540469;26;19993;-44
2024/04/10 11:31:21;;;;;;;5.63;1.10;;;12.10;99.90;;;;;;5540283;25;19989;-46
2024/04/10 11:33:46;;;;;;;5.53;1.13;;;12.10;99.90;;;;;;5540457;25;19985;-48
2024/04/10 11:36:12;;;;;;;5.07;0.73;;;12.10;99.90;;;;;;5541173;26;20009;-44
2024/04/10 11:38:38;;;;;;;2.20;0.90;;;12.20;99.90;;;;;;5540271;26;20009;-48
2024/04/10 11:41:07;;;;;;;2.22;0.90;;;12.20;99.90;;;;;;5540996;26;20072;-47
2024/04/10 11:43:33;;;;;;;2.00;0.60;;;12.30;99.90;;;;;;5539745;26;19986;-48
2024/04/10 11:45:59;;;;;;;4.07;1.15;;;12.20;99.90;;;;;;5540445;25;20037;-47
2024/04/10 11:48:25;;;;;;;2.97;1.00;;;12.30;99.90;;;;;;5540210;26;20001;-47
2024/04/10 11:50:52;;;;;;;4.88;1.00;;;12.30;99.90;;;;;;5539797;26;19985;-46
2024/04/10 11:53:17;;;;;;;1.00;0.80;;;12.30;99.90;;;;;;5541210;25;20007;-44
2024/04/10 11:55:43;;;;;;;2.53;0.70;;;12.30;99.90;;;;;;5540936;26;20006;-46
2024/04/10 11:58:09;;;;;;;2.20;1.13;;;12.30;99.90;;;;;;5540552;26;19994;-45
2024/04/10 12:00:34;;;;;;;3.67;0.73;;;12.40;99.90;;;;;;5540741;26;19986;-45
2024/04/10 12:03:00;;;;;;;3.33;0.98;;;12.30;99.90;;;;;;5541055;26;20042;-46
2024/04/10 12:05:26;;;;;;;2.75;0.80;;;12.30;99.90;;;;;;5541025;26;19993;-45
2024/04/10 12:07:52;;;;;;;6.35;1.30;;;12.30;99.90;;;;;;5539940;26;20009;-44
2024/04/10 12:10:18;;;;;;;3.90;1.00;;;12.30;99.90;;;;;;5540869;25;20163;-47
2024/04/10 12:12:48;;;;;;;1.42;1.02;;;12.30;99.90;;;;;;5540838;26;19988;-47
2024/04/10 12:15:14;;;;;;;;;;;12.30;99.90;;;;;;5539902;26;19989;-44
2024/04/10 12:17:39;;;;;;;5.93;2.33;;;12.30;99.90;;;;;;5540108;25;20028;-45
2024/04/10 12:20:06;;;;;;;25.83;15.07;;;12.30;99.90;;;;;;5540345;26;19988;-48
2024/04/10 12:22:31;;;;;;;9.38;2.85;;;12.40;99.90;;;;;;5540366;25;19986;-45
2024/04/10 12:24:57;;;;;;;7.55;2.80;;;12.40;99.90;;;;;;5540393;26;20026;-45
2024/04/10 12:27:23;;;;;;;8.02;1.73;;;12.50;99.90;;;;;;5540355;26;19982;-47
2024/04/10 12:29:48;;;;;;;3.60;1.30;;;12.60;99.90;;;;;;5539232;26;19981;-47
2024/04/10 12:32:14;;;;;;;3.60;2.10;;;12.50;99.90;;;;;;5540084;25;19986;-45
2024/04/10 12:34:40;;;;;;;3.42;1.27;;;12.50;99.90;;;;;;5539776;26;20042;-47
2024/04/10 12:39:50;;;;;;;2.75;1.35;;;12.50;99.90;;;;;;5539889;26;20038;-44
2024/04/10 12:42:16;;;;;;;6.65;1.70;;;12.50;99.90;;;;;;5540019;25;19997;-48
2024/04/10 12:44:41;;;;;;;3.58;1.27;;;12.60;99.90;;;;;;5539283;26;20053;-46
2024/04/10 12:47:08;;;;;;;4.82;2.45;;;12.60;99.90;;;;;;5539488;26;20022;-47
2024/04/10 12:49:35;;;;;;;5.72;1.10;;;12.60;99.90;;;;;;5539505;25;20056;-46
2024/04/10 12:52:00;;;;;;;3.35;0.85;;;12.70;99.90;;;;;;5539731;25;19989;-45